createdAt,value
2019-05-01T00:00:50.740Z,54.46
2019-05-01T00:05:56.554Z,54.55
2019-05-01T00:10:58.635Z,54.86
2019-05-01T00:16:00.770Z,54.99
2019-05-01T00:21:02.852Z,55.24
2019-05-01T00:26:05.103Z,55.41
2019-05-01T00:31:07.422Z,55.51
2019-05-01T00:36:09.507Z,55.90
2019-05-01T00:41:11.589Z,55.75
2019-05-01T00:46:13.726Z,55.90
2019-05-01T00:51:15.860Z,56.08
2019-05-01T00:56:40.124Z,56.22
2019-05-01T01:02:00.308Z,56.31
2019-05-01T01:07:02.500Z,56.42
2019-05-01T01:12:04.559Z,56.45
2019-05-01T01:17:06.593Z,56.61
2019-05-01T01:22:08.642Z,56.47
2019-05-01T01:27:11.010Z,56.56
2019-05-01T01:32:13.193Z,56.61
2019-05-01T01:37:15.239Z,56.56
2019-05-01T01:42:17.997Z,56.50
2019-05-01T01:47:20.071Z,56.60
2019-05-01T01:52:22.676Z,56.93
2019-05-01T01:57:25.058Z,57.48
2019-05-01T02:02:35.935Z,57.53
2019-05-01T02:07:38.190Z,57.88
2019-05-01T02:12:40.622Z,58.26
2019-05-01T02:17:42.664Z,58.21
2019-05-01T02:22:44.750Z,58.39
2019-05-01T02:28:12.122Z,58.45
2019-05-01T02:33:27.660Z,58.23
2019-05-01T02:38:31.400Z,58.10
2019-05-01T02:43:37.217Z,57.72
2019-05-01T02:48:43.956Z,57.53
2019-05-01T02:53:47.736Z,57.43
2019-05-01T02:58:53.526Z,57.09
2019-05-01T03:03:56.936Z,57.05
2019-05-01T03:09:00.552Z,57.00
2019-05-01T03:14:03.489Z,56.69
2019-05-01T03:19:10.059Z,56.56
2019-05-01T03:24:16.950Z,56.51
2019-05-01T03:29:19.829Z,56.31
2019-05-01T03:34:22.189Z,56.16
2019-05-01T03:39:24.218Z,56.23
2019-05-01T03:44:26.442Z,56.13
2019-05-01T03:49:28.855Z,56.11
2019-05-01T03:54:32.152Z,56.49
2019-05-01T03:59:34.696Z,57.01
2019-05-01T04:04:37.085Z,57.73
2019-05-01T04:09:40.287Z,58.29
2019-05-01T04:14:42.631Z,58.49
2019-05-01T04:19:45.071Z,58.72
2019-05-01T04:24:48.085Z,58.91
2019-05-01T04:30:02.342Z,59.10
2019-05-01T04:35:19.366Z,59.32
2019-05-01T04:40:21.597Z,59.37
2019-05-01T04:45:24.358Z,59.62
2019-05-01T04:50:26.992Z,59.45
2019-05-01T04:55:30.491Z,59.51
2019-05-01T05:00:33.249Z,59.73
2019-05-01T05:05:35.500Z,59.82
2019-05-01T05:10:39.620Z,60.04
2019-05-01T05:15:50.781Z,60.11
2019-05-01T05:20:52.907Z,60.09
2019-05-01T05:25:55.326Z,60.03
2019-05-01T05:30:58.168Z,60.02
2019-05-01T05:36:02.727Z,59.85
2019-05-01T05:41:05.575Z,60.22
2019-05-01T05:46:07.867Z,60.06
2019-05-01T05:51:19.622Z,59.60
2019-05-01T05:56:49.080Z,59.64
2019-05-01T06:02:10.222Z,59.44
2019-05-01T06:07:32.452Z,58.70
2019-05-01T06:12:46.893Z,57.88
2019-05-01T06:18:22.658Z,55.79
2019-05-01T06:23:41.928Z,53.97
2019-05-01T06:28:44.063Z,52.47
2019-05-01T06:33:48.673Z,53.07
2019-05-01T06:38:50.394Z,52.26
2019-05-01T06:44:04.049Z,50.63
2019-05-01T06:49:30.970Z,50.04
2019-05-01T06:54:35.188Z,49.51
2019-05-01T06:59:38.830Z,48.56
2019-05-01T07:04:42.943Z,48.96
2019-05-01T07:09:49.227Z,48.87
2019-05-01T07:14:52.118Z,49.22
2019-05-01T07:20:19.064Z,49.23
2019-05-01T07:25:21.247Z,48.86
2019-05-01T07:30:49.803Z,48.26
2019-05-01T07:35:54.032Z,47.59
2019-05-01T07:40:58.851Z,46.55
2019-05-01T07:46:21.429Z,45.61
2019-05-01T07:51:23.716Z,46.53
2019-05-01T07:56:28.245Z,46.58
2019-05-01T08:01:49.910Z,44.32
2019-05-01T08:06:51.997Z,43.84
2019-05-01T08:11:53.987Z,43.64
2019-05-01T08:16:56.096Z,44.37
2019-05-01T08:22:13.635Z,44.43
2019-05-01T08:27:28.624Z,45.23
2019-05-01T08:32:42.106Z,45.64
2019-05-01T08:37:44.276Z,46.43
2019-05-01T08:42:46.867Z,46.39
2019-05-01T08:48:01.523Z,47.05
2019-05-01T08:53:04.149Z,47.44
2019-05-01T08:58:08.806Z,46.59
2019-05-01T09:03:13.547Z,45.91
2019-05-01T09:08:15.226Z,45.70
2019-05-01T09:13:18.950Z,45.17
2019-05-01T09:18:21.245Z,44.56
2019-05-01T09:23:23.399Z,44.83
2019-05-01T09:28:29.819Z,44.79
2019-05-01T09:33:32.125Z,44.88
2019-05-01T09:38:34.367Z,45.07
2019-05-01T09:43:37.082Z,44.36
2019-05-01T09:48:39.634Z,44.15
2019-05-01T09:53:55.884Z,42.32
2019-05-01T09:58:57.981Z,42.57
2019-05-01T10:04:00.226Z,42.31
2019-05-01T10:09:04.882Z,41.65
2019-05-01T10:14:06.976Z,41.03
2019-05-01T10:19:09.018Z,39.40
2019-05-01T10:24:11.077Z,38.24
2019-05-01T10:29:35.786Z,38.36
2019-05-01T10:34:51.110Z,37.06
2019-05-01T10:39:54.100Z,37.92
2019-05-01T10:44:57.536Z,38.73
2019-05-01T10:49:59.621Z,38.60
2019-05-01T10:55:03.754Z,38.90
2019-05-01T11:00:06.321Z,38.81
2019-05-01T11:05:08.941Z,38.45
2019-05-01T11:10:11.117Z,38.23
2019-05-01T11:15:14.497Z,38.10
2019-05-01T11:20:16.558Z,36.96
2019-05-01T11:25:20.185Z,36.22
2019-05-01T11:30:22.591Z,35.58
2019-05-01T11:35:41.994Z,35.19
2019-05-01T11:40:48.639Z,35.78
2019-05-01T11:45:51.347Z,34.65
2019-05-01T11:50:55.392Z,35.92
2019-05-01T11:55:57.473Z,35.32
2019-05-01T12:01:01.334Z,34.35
2019-05-01T12:06:03.410Z,34.33
2019-05-01T12:11:08.256Z,34.53
2019-05-01T12:16:17.637Z,34.30
2019-05-01T12:21:19.708Z,32.80
2019-05-01T12:26:21.800Z,33.88
2019-05-01T12:31:23.857Z,34.52
2019-05-01T12:36:36.133Z,34.45
2019-05-01T12:41:35.634Z,32.00
2019-05-01T12:46:44.170Z,32.24
2019-05-01T12:51:48.170Z,32.27
2019-05-01T12:56:53.803Z,32.09
2019-05-01T13:01:55.875Z,32.69
2019-05-01T13:06:59.133Z,31.87
2019-05-01T13:12:01.228Z,31.46
2019-05-01T13:17:03.241Z,31.19
2019-05-01T13:22:05.468Z,31.78
2019-05-01T13:27:13.714Z,31.98
2019-05-01T13:32:38.341Z,31.97
2019-05-01T13:37:40.508Z,32.18
2019-05-01T13:42:42.574Z,32.69
2019-05-01T13:47:44.931Z,33.16
2019-05-01T13:52:47.176Z,33.88
2019-05-01T13:57:49.219Z,33.61
2019-05-01T14:02:51.299Z,34.06
2019-05-01T14:07:53.424Z,34.36
2019-05-01T14:12:55.489Z,34.28
2019-05-01T14:17:57.582Z,33.93
2019-05-01T14:23:14.775Z,34.05
2019-05-01T14:28:16.902Z,34.74
2019-05-01T14:33:18.963Z,34.99
2019-05-01T14:38:21.028Z,35.20
2019-05-01T14:43:23.155Z,35.60
2019-05-01T14:48:25.486Z,35.78
2019-05-01T14:53:27.627Z,35.27
2019-05-01T14:58:29.698Z,35.28
2019-05-01T15:03:31.887Z,35.75
2019-05-01T15:08:33.975Z,36.09
2019-05-01T15:13:48.748Z,36.51
2019-05-01T15:19:02.751Z,36.97
2019-05-01T15:24:04.809Z,37.00
2019-05-01T15:29:06.864Z,36.87
2019-05-01T15:34:08.932Z,36.44
2019-05-01T15:39:17.409Z,36.40
2019-05-01T15:44:32.120Z,36.47
2019-05-01T15:49:34.252Z,36.21
2019-05-01T15:54:36.339Z,36.40
2019-05-01T15:59:38.523Z,36.76
2019-05-01T16:04:40.748Z,37.01
2019-05-01T16:09:42.791Z,37.29
2019-05-01T16:14:48.994Z,37.48
2019-05-01T16:19:51.123Z,37.53
2019-05-01T16:24:53.233Z,37.36
2019-05-01T16:29:55.284Z,37.50
2019-05-01T16:34:57.362Z,37.45
2019-05-01T16:40:09.002Z,37.69
2019-05-01T16:45:11.867Z,37.36
2019-05-01T16:50:14.301Z,37.84
2019-05-01T16:55:17.043Z,37.94
2019-05-01T17:00:26.379Z,38.26
2019-05-01T17:05:46.391Z,38.15
2019-05-01T17:10:49.275Z,38.41
2019-05-01T17:15:51.316Z,38.94
2019-05-01T17:20:53.431Z,39.29
2019-05-01T17:25:55.515Z,39.43
2019-05-01T17:31:00.250Z,39.86
2019-05-01T17:36:02.362Z,40.12
2019-05-01T17:41:04.617Z,40.48
2019-05-01T17:46:10.882Z,40.43
2019-05-01T17:51:10.798Z,41.13
2019-05-01T17:56:15.356Z,41.43
2019-05-01T18:01:37.437Z,41.85
2019-05-01T18:06:46.568Z,42.08
2019-05-01T18:11:47.432Z,42.32
2019-05-01T18:16:50.430Z,42.53
2019-05-01T18:22:02.290Z,42.86
2019-05-01T18:27:19.148Z,43.08
2019-05-01T18:32:27.582Z,43.53
2019-05-01T18:37:36.359Z,43.87
2019-05-01T18:42:38.558Z,44.32
2019-05-01T18:47:40.632Z,44.69
2019-05-01T18:52:42.667Z,44.85
2019-05-01T18:57:44.792Z,45.33
2019-05-01T19:02:46.902Z,45.76
2019-05-01T19:07:49.138Z,45.76
2019-05-01T19:12:51.238Z,45.74
2019-05-01T19:17:53.388Z,45.88
2019-05-01T19:22:55.455Z,46.24
2019-05-01T19:27:57.574Z,46.42
2019-05-01T19:32:59.643Z,46.75
2019-05-01T19:38:01.859Z,47.07
2019-05-01T19:43:04.102Z,47.39
2019-05-01T19:48:06.509Z,47.41
2019-05-01T19:53:10.158Z,47.59
2019-05-01T19:58:12.566Z,47.89
2019-05-01T20:03:14.985Z,48.43
2019-05-01T20:08:17.072Z,48.46
2019-05-01T20:13:19.171Z,48.66
2019-05-01T20:18:21.268Z,49.03
2019-05-01T20:23:26.262Z,49.12
2019-05-01T20:28:28.430Z,49.00
2019-05-01T20:33:33.424Z,49.37
2019-05-01T20:38:34.559Z,49.63
2019-05-01T20:43:38.159Z,49.89
2019-05-01T20:48:40.653Z,50.23
2019-05-01T20:53:42.797Z,50.22
2019-05-01T20:58:45.116Z,50.40
2019-05-01T21:03:57.291Z,50.58
2019-05-01T21:09:15.856Z,50.76
2019-05-01T21:14:22.750Z,50.77
2019-05-01T21:19:23.357Z,51.01
2019-05-01T21:24:26.042Z,51.20
2019-05-01T21:29:28.204Z,51.33
2019-05-01T21:34:30.289Z,51.54
2019-05-01T21:39:33.482Z,51.90
2019-05-01T21:44:35.563Z,51.92
2019-05-01T21:49:37.625Z,52.10
2019-05-01T21:54:39.762Z,52.28
2019-05-01T21:59:44.691Z,52.49
2019-05-01T22:04:45.855Z,52.74
2019-05-01T22:09:50.571Z,52.71
2019-05-01T22:14:58.549Z,52.98
2019-05-01T22:20:00.857Z,52.88
2019-05-01T22:25:29.521Z,53.19
2019-05-01T22:30:42.239Z,53.24
2019-05-01T22:35:45.994Z,53.32
2019-05-01T22:41:22.869Z,53.35
2019-05-01T22:46:28.622Z,53.25
2019-05-01T22:51:30.712Z,53.36
2019-05-01T22:56:32.789Z,53.66
2019-05-01T23:01:35.176Z,53.68
2019-05-01T23:06:41.862Z,54.00
2019-05-01T23:11:45.194Z,54.23
2019-05-01T23:16:58.663Z,54.15
2019-05-01T23:21:59.352Z,54.44
2019-05-01T23:27:01.435Z,54.64
2019-05-01T23:32:04.701Z,54.67
2019-05-01T23:37:06.817Z,54.86
2019-05-01T23:42:08.911Z,55.09
2019-05-01T23:47:10.982Z,55.21
2019-05-01T23:52:13.217Z,55.46
2019-05-01T23:57:18.800Z,55.60
